createdAt,value
2022-09-30T00:01:14.860Z,140.50
2022-09-30T00:05:02.686Z,131.70
2022-09-30T00:08:40.080Z,119.30
2022-09-30T00:12:27.347Z,119.30
2022-09-30T00:15:52.003Z,109.10
2022-09-30T00:19:39.824Z,106.70
2022-09-30T00:23:20.569Z,119.10
2022-09-30T00:27:11.364Z,115.30
2022-09-30T00:30:24.095Z,114.20
2022-09-30T00:33:55.700Z,123.70
2022-09-30T00:41:47.048Z,102.90
2022-09-30T00:45:39.968Z,96.40
2022-09-30T00:49:27.660Z,96.40
2022-09-30T00:53:06.572Z,92.40
2022-09-30T00:56:40.658Z,86.90
2022-09-30T01:00:30.518Z,83.10
2022-09-30T01:04:13.914Z,80.60
2022-09-30T01:08:00.150Z,79.30
2022-09-30T01:11:44.715Z,78.20
2022-09-30T01:15:32.554Z,69.40
2022-09-30T01:19:20.307Z,87.70
2022-09-30T01:23:19.570Z,74.70
2022-09-30T01:27:15.936Z,67.50
2022-09-30T01:31:04.959Z,71.70
2022-09-30T01:35:01.401Z,76.00
2022-09-30T01:39:06.970Z,73.00
2022-09-30T01:42:52.814Z,77.70
2022-09-30T01:46:43.609Z,73.70
2022-09-30T01:50:34.257Z,71.40
2022-09-30T01:54:29.376Z,66.70
2022-09-30T01:58:22.556Z,68.90
2022-09-30T02:02:05.910Z,82.40
2022-09-30T02:05:59.418Z,85.10
2022-09-30T02:09:54.410Z,86.20
2022-09-30T02:13:37.886Z,83.30
2022-09-30T02:17:30.985Z,80.90
2022-09-30T02:21:27.853Z,77.80
2022-09-30T02:25:03.448Z,75.90
2022-09-30T02:28:49.833Z,69.90
2022-09-30T02:32:37.964Z,71.50
2022-09-30T02:36:25.752Z,71.70
2022-09-30T02:40:28.077Z,66.50
2022-09-30T02:44:15.011Z,62.50
2022-09-30T02:48:11.556Z,63.70
2022-09-30T02:52:05.335Z,66.70
2022-09-30T02:56:11.099Z,69.60
2022-09-30T02:59:44.946Z,72.10
2022-09-30T03:03:36.188Z,63.90
2022-09-30T03:07:23.010Z,66.00
2022-09-30T03:11:15.148Z,66.30
2022-09-30T03:15:01.185Z,66.90
2022-09-30T03:18:48.947Z,65.90
2022-09-30T03:22:35.070Z,62.80
2022-09-30T03:26:24.197Z,69.10
2022-09-30T03:30:14.949Z,66.50
2022-09-30T03:34:08.163Z,63.30
2022-09-30T03:37:49.904Z,74.00
2022-09-30T03:41:43.654Z,72.70
2022-09-30T03:45:39.290Z,62.40
2022-09-30T03:49:28.331Z,68.30
2022-09-30T03:53:15.832Z,66.40
2022-09-30T03:57:06.172Z,66.50
2022-09-30T04:00:39.301Z,68.80
2022-09-30T04:04:17.086Z,64.40
2022-09-30T04:07:56.585Z,68.50
2022-09-30T04:11:37.769Z,63.90
2022-09-30T04:15:17.923Z,73.10
2022-09-30T04:18:59.677Z,61.60
2022-09-30T04:22:47.593Z,71.60
2022-09-30T04:26:29.275Z,68.60
2022-09-30T04:30:20.263Z,63.20
2022-09-30T04:34:14.251Z,70.00
2022-09-30T04:38:02.104Z,63.60
2022-09-30T04:41:30.631Z,70.30
2022-09-30T04:45:19.003Z,67.10
2022-09-30T04:49:09.066Z,62.60
2022-09-30T04:52:42.403Z,79.50
2022-09-30T04:56:30.168Z,71.10
2022-09-30T05:00:17.874Z,76.60
2022-09-30T05:04:07.741Z,74.70
2022-09-30T05:07:47.188Z,70.50
2022-09-30T05:11:06.625Z,67.10
2022-09-30T05:14:47.038Z,65.10
2022-09-30T05:18:18.857Z,71.70
2022-09-30T05:22:05.378Z,71.70
2022-09-30T05:25:53.335Z,80.30
2022-09-30T05:29:32.321Z,78.30
2022-09-30T05:33:14.745Z,69.90
2022-09-30T05:36:55.228Z,70.00
2022-09-30T05:40:43.660Z,66.60
2022-09-30T05:44:23.812Z,72.20
2022-09-30T05:48:10.026Z,69.10
2022-09-30T05:51:58.083Z,73.60
2022-09-30T05:55:45.259Z,83.80
2022-09-30T05:59:24.318Z,83.50
2022-09-30T06:02:43.618Z,84.10
2022-09-30T06:06:40.828Z,83.30
2022-09-30T06:10:18.643Z,76.90
2022-09-30T06:14:05.613Z,81.00
2022-09-30T06:17:47.649Z,73.70
2022-09-30T06:21:26.353Z,82.60
2022-09-30T06:25:14.479Z,74.10
2022-09-30T06:28:59.752Z,77.00
2022-09-30T06:32:39.548Z,68.70
2022-09-30T06:36:27.066Z,67.90
2022-09-30T06:40:14.675Z,72.00
2022-09-30T06:44:03.386Z,69.10
2022-09-30T06:47:52.484Z,76.30
2022-09-30T06:51:26.564Z,67.70
2022-09-30T06:55:13.449Z,73.40
2022-09-30T06:58:54.459Z,74.20
2022-09-30T07:02:42.360Z,77.20
2022-09-30T07:06:28.793Z,87.60
2022-09-30T07:10:09.035Z,85.80
2022-09-30T07:13:57.098Z,80.40
2022-09-30T07:17:44.962Z,64.30
2022-09-30T07:21:32.637Z,57.50
2022-09-30T07:25:20.524Z,59.70
2022-09-30T07:29:00.445Z,43.80
2022-09-30T07:32:33.945Z,52.80
2022-09-30T07:36:21.983Z,48.60
2022-09-30T07:39:54.744Z,50.70
2022-09-30T07:43:35.762Z,50.50
2022-09-30T07:47:24.879Z,57.00
2022-09-30T07:51:12.602Z,54.40
2022-09-30T07:55:00.450Z,53.20
2022-09-30T07:58:38.485Z,47.20
2022-09-30T08:02:17.611Z,51.60
2022-09-30T08:06:05.532Z,42.80
2022-09-30T08:09:53.636Z,45.10
2022-09-30T08:13:41.507Z,46.90
2022-09-30T08:17:29.386Z,38.70
2022-09-30T08:21:17.027Z,40.10
2022-09-30T08:25:04.625Z,40.80
2022-09-30T08:28:50.774Z,38.00
2022-09-30T08:32:38.677Z,45.30
2022-09-30T08:36:27.521Z,38.50
2022-09-30T08:40:16.277Z,35.70
2022-09-30T08:44:25.246Z,39.00
2022-09-30T08:48:11.627Z,35.20
2022-09-30T08:52:02.534Z,31.30
2022-09-30T08:55:53.666Z,35.90
2022-09-30T08:59:42.042Z,28.30
2022-09-30T09:03:38.809Z,26.30
2022-09-30T09:07:31.074Z,28.60
2022-09-30T09:11:22.910Z,28.00
2022-09-30T09:15:16.788Z,26.00
2022-09-30T09:19:15.611Z,26.20
2022-09-30T09:23:03.173Z,24.40
2022-09-30T09:26:45.041Z,29.40
2022-09-30T09:30:41.641Z,28.30
2022-09-30T09:34:40.635Z,24.50
2022-09-30T09:38:46.904Z,26.80
2022-09-30T09:42:36.304Z,25.00
2022-09-30T09:46:24.272Z,26.80
2022-09-30T09:50:15.257Z,28.50
2022-09-30T09:54:18.194Z,30.70
2022-09-30T09:58:09.323Z,26.30
2022-09-30T10:01:57.505Z,22.60
2022-09-30T10:05:45.861Z,19.80
2022-09-30T10:09:35.293Z,17.80
2022-09-30T10:13:26.266Z,17.70
2022-09-30T10:17:24.242Z,19.50
2022-09-30T10:21:15.248Z,23.00
2022-09-30T10:25:06.139Z,20.90
2022-09-30T10:29:03.154Z,18.00
2022-09-30T10:32:44.067Z,20.60
2022-09-30T10:36:37.781Z,19.30
2022-09-30T10:40:28.794Z,20.20
2022-09-30T10:44:22.343Z,24.10
2022-09-30T10:48:10.879Z,22.30
2022-09-30T10:51:40.222Z,17.20
2022-09-30T10:55:40.746Z,20.60
2022-09-30T10:59:21.704Z,22.40
2022-09-30T11:03:15.338Z,20.60
2022-09-30T11:07:03.952Z,23.50
2022-09-30T11:10:54.392Z,20.20
2022-09-30T11:15:15.674Z,25.10
2022-09-30T11:19:04.150Z,25.40
2022-09-30T11:22:57.833Z,30.00
2022-09-30T11:26:46.112Z,23.50
2022-09-30T11:30:36.857Z,22.10
2022-09-30T11:34:31.369Z,21.90
2022-09-30T11:38:08.202Z,27.80
2022-09-30T11:41:59.341Z,23.90
2022-09-30T11:45:59.327Z,24.40
2022-09-30T11:49:59.355Z,24.30
2022-09-30T11:53:53.121Z,25.10
2022-09-30T11:57:49.815Z,18.60
2022-09-30T12:01:38.211Z,20.80
2022-09-30T12:05:26.036Z,21.10
2022-09-30T12:09:29.272Z,24.10
2022-09-30T12:13:17.900Z,23.70
2022-09-30T12:17:05.135Z,21.50
2022-09-30T12:21:10.877Z,20.40
2022-09-30T12:25:20.283Z,22.30
2022-09-30T12:29:06.319Z,23.00
2022-09-30T12:32:55.051Z,20.80
2022-09-30T12:36:54.610Z,21.90
2022-09-30T12:40:42.076Z,22.90
2022-09-30T12:44:48.526Z,25.50
2022-09-30T12:48:37.292Z,25.00
2022-09-30T12:52:26.681Z,22.30
2022-09-30T12:56:17.589Z,18.50
2022-09-30T13:00:06.471Z,21.40
2022-09-30T13:03:58.012Z,21.80
2022-09-30T13:07:46.883Z,23.20
2022-09-30T13:11:38.864Z,18.90
2022-09-30T13:15:42.951Z,19.10
2022-09-30T13:19:31.648Z,25.80
2022-09-30T13:23:20.690Z,25.50
2022-09-30T13:27:26.962Z,25.00
2022-09-30T13:31:15.708Z,24.80
2022-09-30T13:34:53.999Z,21.20
2022-09-30T13:38:52.513Z,21.30
2022-09-30T13:42:40.480Z,19.90
2022-09-30T13:46:31.204Z,18.00
2022-09-30T13:50:40.579Z,19.10
2022-09-30T13:54:31.323Z,16.40
2022-09-30T13:58:20.523Z,17.80
2022-09-30T14:02:21.415Z,17.40
2022-09-30T14:06:12.089Z,19.20
2022-09-30T14:10:17.122Z,20.40
2022-09-30T14:14:28.951Z,20.30
2022-09-30T14:18:22.321Z,18.40
2022-09-30T14:22:14.381Z,18.60
2022-09-30T14:26:03.204Z,17.10
2022-09-30T14:30:03.219Z,21.50
2022-09-30T14:34:02.884Z,18.50
2022-09-30T14:37:56.192Z,17.30
2022-09-30T14:41:41.312Z,15.40
2022-09-30T14:45:08.926Z,15.50
2022-09-30T14:48:48.950Z,18.00
2022-09-30T14:52:29.381Z,18.30
2022-09-30T14:56:23.842Z,28.40
2022-09-30T15:00:18.138Z,20.10
2022-09-30T15:04:06.904Z,20.50
2022-09-30T15:07:54.858Z,20.60
2022-09-30T15:11:49.797Z,21.70
2022-09-30T15:16:02.136Z,25.20
2022-09-30T15:19:54.360Z,23.10
2022-09-30T15:23:42.495Z,32.90
2022-09-30T15:27:30.608Z,19.40
2022-09-30T15:31:17.492Z,20.80
2022-09-30T15:35:05.431Z,25.80
2022-09-30T15:38:56.096Z,25.70
2022-09-30T15:42:44.908Z,25.50
2022-09-30T15:46:33.551Z,27.20
2022-09-30T15:50:19.349Z,32.20
2022-09-30T15:54:09.944Z,35.80
2022-09-30T15:58:17.739Z,27.70
2022-09-30T16:02:02.994Z,26.40
2022-09-30T16:05:54.017Z,25.80
2022-09-30T16:09:45.532Z,69.50
2022-09-30T16:13:33.967Z,29.70
2022-09-30T16:17:18.589Z,23.00
2022-09-30T16:21:06.660Z,37.30
2022-09-30T16:25:04.546Z,38.00
2022-09-30T16:29:14.652Z,90.60
2022-09-30T16:32:52.146Z,67.90
2022-09-30T16:36:40.323Z,61.40
2022-09-30T16:40:10.110Z,85.30
2022-09-30T16:43:52.360Z,125.30
2022-09-30T16:47:40.264Z,96.20
2022-09-30T16:51:07.277Z,91.10
2022-09-30T16:54:43.742Z,100.40
2022-09-30T16:58:32.511Z,73.90
2022-09-30T17:02:20.387Z,57.60
2022-09-30T17:06:07.705Z,60.20
2022-09-30T17:09:56.178Z,66.10
2022-09-30T17:13:45.603Z,63.00
2022-09-30T17:17:34.125Z,57.40
2022-09-30T17:21:22.954Z,93.70
2022-09-30T17:25:03.573Z,66.30
2022-09-30T17:28:55.385Z,67.30
2022-09-30T17:32:46.295Z,92.20
2022-09-30T17:36:30.147Z,65.80
2022-09-30T17:40:18.937Z,85.60
2022-09-30T17:43:56.946Z,80.60
2022-09-30T17:47:30.898Z,76.20
2022-09-30T17:51:27.084Z,61.90
2022-09-30T17:55:15.123Z,58.60
2022-09-30T17:59:02.431Z,60.40
2022-09-30T18:02:55.228Z,62.30
2022-09-30T18:06:42.419Z,79.50
2022-09-30T18:10:13.233Z,79.70
2022-09-30T18:14:02.526Z,76.70
2022-09-30T18:17:54.743Z,81.30
2022-09-30T18:25:36.709Z,86.10
2022-09-30T18:29:36.019Z,84.40
2022-09-30T18:33:42.302Z,82.30
2022-09-30T18:37:12.577Z,104.30
2022-09-30T18:40:55.598Z,109.40
2022-09-30T18:44:37.252Z,115.10
2022-09-30T18:48:25.853Z,119.30
2022-09-30T18:52:09.432Z,115.10
2022-09-30T18:55:15.774Z,117.20
2022-09-30T18:59:17.177Z,149.80
2022-09-30T19:02:46.411Z,154.50
2022-09-30T19:06:14.057Z,129.50
2022-09-30T19:09:22.837Z,108.90
2022-09-30T19:12:54.868Z,120.80
2022-09-30T19:16:43.673Z,109.80
2022-09-30T19:20:19.491Z,107.40
2022-09-30T19:24:07.774Z,90.60
2022-09-30T19:27:56.846Z,117.50
2022-09-30T19:31:26.364Z,128.10
2022-09-30T19:35:06.269Z,114.40
2022-09-30T19:38:38.063Z,241.00
2022-09-30T19:42:14.096Z,195.50
2022-09-30T19:45:53.516Z,232.40
2022-09-30T19:49:22.686Z,478.50
2022-09-30T19:52:57.880Z,227.50
2022-09-30T19:56:51.162Z,129.60
2022-09-30T20:00:31.894Z,124.60
2022-09-30T20:04:01.384Z,103.60
2022-09-30T20:07:43.800Z,100.90
2022-09-30T20:11:32.025Z,112.70
2022-09-30T20:15:19.071Z,97.40
2022-09-30T20:19:08.568Z,94.90
2022-09-30T20:22:56.871Z,92.40
2022-09-30T20:26:44.897Z,92.10
2022-09-30T20:30:27.508Z,91.10
2022-09-30T20:34:09.277Z,94.70
2022-09-30T20:37:57.907Z,89.70
2022-09-30T20:41:47.587Z,85.60
2022-09-30T20:45:02.904Z,89.80
2022-09-30T20:48:13.445Z,88.60
2022-09-30T20:52:05.480Z,84.10
2022-09-30T20:55:46.005Z,83.50
2022-09-30T20:59:34.312Z,80.30
2022-09-30T21:03:22.372Z,84.80
2022-09-30T21:07:10.235Z,83.90
2022-09-30T21:10:50.709Z,76.20
2022-09-30T21:14:42.343Z,79.80
2022-09-30T21:18:30.444Z,87.30
2022-09-30T21:22:17.975Z,77.80
2022-09-30T21:25:59.627Z,75.50
2022-09-30T21:29:47.483Z,72.60
2022-09-30T21:33:35.495Z,68.40
2022-09-30T21:37:23.893Z,71.90
2022-09-30T21:41:13.327Z,61.40
2022-09-30T21:44:54.085Z,65.90
2022-09-30T21:48:32.020Z,64.00
2022-09-30T21:52:19.820Z,60.00
2022-09-30T21:56:07.969Z,61.90
2022-09-30T21:59:50.262Z,70.30
2022-09-30T22:03:39.175Z,92.50
2022-09-30T22:07:12.790Z,70.00
2022-09-30T22:10:46.214Z,79.60
2022-09-30T22:14:34.171Z,82.50
2022-09-30T22:18:21.849Z,84.20
2022-09-30T22:22:05.922Z,81.00
2022-09-30T22:25:53.940Z,70.10
2022-09-30T22:29:35.671Z,73.00
2022-09-30T22:33:23.688Z,76.00
2022-09-30T22:37:10.213Z,76.00
2022-09-30T22:40:58.048Z,69.90
2022-09-30T22:44:28.938Z,66.50
2022-09-30T22:48:16.886Z,71.40
2022-09-30T22:51:57.414Z,66.60
2022-09-30T22:55:44.976Z,73.60
2022-09-30T22:59:32.531Z,72.00
2022-09-30T23:03:20.335Z,62.50
2022-09-30T23:07:08.467Z,74.50
2022-09-30T23:10:56.186Z,70.60
2022-09-30T23:14:34.253Z,64.10
2022-09-30T23:18:21.972Z,64.40
2022-09-30T23:22:12.407Z,70.60
2022-09-30T23:26:00.009Z,68.90
2022-09-30T23:29:40.242Z,71.10
2022-09-30T23:33:17.845Z,65.30
2022-09-30T23:37:05.983Z,57.60
2022-09-30T23:40:46.060Z,56.50
2022-09-30T23:44:33.943Z,63.40
2022-09-30T23:48:09.929Z,94.90
2022-09-30T23:51:50.789Z,80.70
2022-09-30T23:55:38.366Z,57.10
2022-09-30T23:59:19.921Z,53.60
